WetterOnline ( https://www.wetteronline.de )

Wetter aktuell Klippeneck

Aktuelles Wetter: Klippeneck (975m)

6-stündlich | Neueste Meldungen
Ortszeit Temperatur Wetter
Di, 25.02. 1:00 8.0° C fast wolkenlos
Mo, 24.02. 19:00 9.2° C wolkenlos
Mo, 24.02. 13:00 9.8° C bewölkt
Mo, 24.02. 7:00 6.0° C Sprühregen
Mo, 24.02. 1:00 8.0° C wolkig
So, 23.02. 19:00 9.6° C bewölkt
So, 23.02. 13:00 10.9° C bewölkt
So, 23.02. 7:00 4.8° C wolkig
Ortszeit Temperatur Wetter
Di, 25.02. 4:30 5.9° C bedeckt
Di, 25.02. 4:20 5.9° C bedeckt
Di, 25.02. 4:10 6.2° C bedeckt
Di, 25.02. 4:00 6.5° C bewölkt
Di, 25.02. 3:50 6.5° C bewölkt
Di, 25.02. 3:40 6.7° C bedeckt
Di, 25.02. 3:30 7.1° C wolkig
Di, 25.02. 3:00 7.2° C wolkenlos
Di, 25.02. 2:30 7.6° C wolkenlos
Di, 25.02. 2:00 7.7° C leicht bewölkt
Di, 25.02. 1:30 7.8° C leicht bewölkt
Ortszeit Relative Feuchte Sichtweite
Di, 25.02. 1:00 67% 70 km
Mo, 24.02. 19:00 61% 70 km
Mo, 24.02. 13:00 77% 70 km
Mo, 24.02. 7:00 99% 100 m
Mo, 24.02. 1:00 86% 70 km
So, 23.02. 19:00 66% 70 km
So, 23.02. 13:00 63% 70 km
So, 23.02. 7:00 73% 70 km
Ortszeit Relative Feuchte Sichtweite
Di, 25.02. 4:30 51% 70 km
Di, 25.02. 4:20 51% -
Di, 25.02. 4:10 49% -
Di, 25.02. 4:00 55% 70 km
Di, 25.02. 3:50 55% -
Di, 25.02. 3:40 55% -
Di, 25.02. 3:30 53% 55 km
Di, 25.02. 3:00 64% 70 km
Di, 25.02. 2:30 64% 70 km
Di, 25.02. 2:00 71% 65 km
Di, 25.02. 1:30 69% 70 km
Ortszeit Niederschlagsmenge Niederschlagsart
Di, 25.02. 1:00 0.0 l/m2 in 6 Std. -
Mo, 24.02. 19:00 0.1 l/m2 in 12 Std. -
Mo, 24.02. 13:00 0.1 l/m2 in 6 Std. Regen
Mo, 24.02. 7:00 2 l/m2 in 12 Std. Regen
Mo, 24.02. 1:00 0.1 l/m2 in 6 Std. Regen
So, 23.02. 19:00 0.1 l/m2 in 12 Std. -
So, 23.02. 13:00 0.1 l/m2 in 6 Std. Regen
So, 23.02. 7:00 0.7 l/m2 in 12 Std. Regen
Ortszeit Niederschlagsmenge Niederschlagsart
Di, 25.02. 4:30 0.0 l/m2 in 1 Std. -
Di, 25.02. 4:20 keine Meldung -
Di, 25.02. 4:10 keine Meldung -
Di, 25.02. 4:00 0.0 l/m2 in 1 Std. -
Di, 25.02. 3:50 keine Meldung -
Di, 25.02. 3:40 keine Meldung -
Di, 25.02. 3:30 0.0 l/m2 in 1 Std. -
Di, 25.02. 3:00 0.0 l/m2 in 1 Std. -
Di, 25.02. 2:30 0.0 l/m2 in 1 Std. -
Di, 25.02. 2:00 0.0 l/m2 in 1 Std. -
Di, 25.02. 1:30 0.0 l/m2 in 1 Std. -
Ortszeit Stärke Spitze Richtung
km/h Bft. km/h Grad Sektor
Di, 25.02. 1:00 24 4 63 260° W
Mo, 24.02. 19:00 28 4 65 230° SW
Mo, 24.02. 13:00 20 4 39 250° W
Mo, 24.02. 7:00 22 4 50 250° W
Mo, 24.02. 1:00 31 5 74 270° W
So, 23.02. 19:00 33 5 81 260° W
So, 23.02. 13:00 31 5 57 260° W
So, 23.02. 7:00 28 4 54 240° SW
Ortszeit Stärke Spitze Richtung
km/h Bft. km/h Grad Sektor
Di, 25.02. 4:30 20 4 33 280° W
Di, 25.02. 4:20 20 4 - 280° W
Di, 25.02. 4:10 18 3 - 280° W
Di, 25.02. 4:00 7 2 40 260° W
Di, 25.02. 3:50 7 2 - 260° W
Di, 25.02. 3:40 11 2 - 250° W
Di, 25.02. 3:30 20 4 39 240° SW
Di, 25.02. 3:00 20 4 50 240° SW
Di, 25.02. 2:30 28 4 50 250° W
Di, 25.02. 2:00 24 4 48 260° W
Di, 25.02. 1:30 20 4 48 260° W
Ortszeit Untergrenze Bedeckung Gattung
total tief tief mittel hoch
Di, 25.02. 1:00 5400 m 1/8 1/8 - - -
Mo, 24.02. 19:00 - 0/8 0/8 - - -
Mo, 24.02. 13:00 570 m 7/8 7/8 - - -
Mo, 24.02. 7:00 <30 m 8/8 0/8 - - -
Mo, 24.02. 1:00 360 m 5/8 5/8 - - -
So, 23.02. 19:00 780 m 7/8 7/8 - - -
So, 23.02. 13:00 750 m 8/8 7/8 - - -
So, 23.02. 7:00 450 m 5/8 5/8 - - -
Ortszeit Bedeckungsgrad in Achtel und Wolkenuntergrenze
Di, 25.02. 4:30 8(6000m)
Di, 25.02. 4:20 8(6000m)
Di, 25.02. 4:10 8(6300m)
Di, 25.02. 4:00 5(6300m) 8(7200m)
Di, 25.02. 3:50 5(6300m) 8(7200m)
Di, 25.02. 3:40 8(6900m)
Di, 25.02. 3:30 5(7200m) 7(7800m) 7(9000m)
Di, 25.02. 3:00 3(7800m)
Di, 25.02. 2:30 keine Wolken
Di, 25.02. 2:00 2(5700m)
Di, 25.02. 1:30 1(990m) 6(5400m)
Ortszeit Stationsdruck (hPa) Tendenz (hPa in 3 Std.)
Di, 25.02. 1:00 900 - 2,0
Mo, 24.02. 19:00 903 - 2,1
Mo, 24.02. 13:00 908 - 2,5
Mo, 24.02. 7:00 911 - 0,3
Mo, 24.02. 1:00 911 + 1,3
So, 23.02. 19:00 910 + 1,0
So, 23.02. 13:00 910 - 2,1
So, 23.02. 7:00 913 - 0,8
Ortszeit Stationsdruck (hPa) Tendenz (hPa in 3 Std.)
Di, 25.02. 4:30 897 - 2,2
Di, 25.02. 4:20 897 keine Meldung
Di, 25.02. 4:10 897 keine Meldung
Di, 25.02. 4:00 898 - 2,1
Di, 25.02. 3:50 898 keine Meldung
Di, 25.02. 3:40 898 keine Meldung
Di, 25.02. 3:30 898 - 2,1
Di, 25.02. 3:00 898 - 2,4
Di, 25.02. 2:30 899 - 2,0
Di, 25.02. 2:00 899 - 1,9
Di, 25.02. 1:30 900 - 1,8
Ortszeit Schneehöhe (cm)
Di, 25.02. 1:00 0
Mo, 24.02. 19:00 0
Mo, 24.02. 13:00 0
Mo, 24.02. 7:00 0
Mo, 24.02. 1:00 0
So, 23.02. 19:00 0
So, 23.02. 13:00 0
So, 23.02. 7:00 0
Ortszeit Schneehöhe (cm)
Di, 25.02. 4:30 0
Di, 25.02. 4:20 0
Di, 25.02. 4:10 0
Di, 25.02. 4:00 0
Di, 25.02. 3:50 0
Di, 25.02. 3:40 0
Di, 25.02. 3:30 0
Di, 25.02. 3:00 0
Di, 25.02. 2:30 0
Di, 25.02. 2:00 0
Di, 25.02. 1:30 0
Link zu dieser Seite / Seite empfehlen

Das Wetter in ...